Time;durP1;ratioP1;P1;durP2;ratioP2;P2;SDS_P1;SDS_P2;PMS_P1;PMS_P2;Temp;Humidity;BMP_temperature;BMP_pressure;BME280_temperature;BME280_humidity;BME280_pressure;Samples;Min_cycle;Max_cycle;Signal;HPM_P1;HPM_P2
2023/03/30 00:00:22;;;;;;;;;;;;;;;17.29;64.50;101680.19;7396636;19;1114;-46
2023/03/30 00:02:52;;;;;;;;;;;;;;;17.35;64.22;101689.59;7401099;19;2030;-46
2023/03/30 00:05:22;;;;;;;;;;;;;;;17.39;64.31;101693.75;7400316;19;1601;-46
2023/03/30 00:08:17;;;;;;;;;;;;;;;17.36;64.38;101669.94;7397120;19;1015;-46
2023/03/30 00:10:48;;;;;;;;;;;;;;;17.37;63.83;101672.50;7396122;19;1834;-46
2023/03/30 00:13:18;;;;;;;;;;;;;;;17.35;64.04;101685.13;7397059;19;1046;-46
2023/03/30 00:15:47;;;;;;;;;;;;;;;17.34;64.46;101680.72;7396417;19;1018;-47
2023/03/30 00:18:16;;;;;;;;;;;;;;;17.38;63.95;101666.19;7397439;19;1570;-46
2023/03/30 00:20:58;;;;;;;;;;;;;;;17.40;64.38;101674.94;7396294;19;1124;-46
2023/03/30 00:23:31;;;;;;;;;;;;;;;17.47;63.95;101678.94;7396502;19;1856;-46
2023/03/30 00:26:03;;;;;;;;;;;;;;;17.39;64.47;101665.22;7397091;19;1034;-46
2023/03/30 00:28:34;;;;;;;;;;;;;;;17.41;64.58;101678.50;7396528;19;1030;-46
2023/03/30 00:31:02;;;;;;;;;;;;;;;17.38;64.74;101682.22;7394930;19;1832;-46
2023/03/30 00:33:35;;;;;;;;;;;;;;;17.38;64.86;101676.03;7395934;19;963;-47
2023/03/30 00:36:06;;;;;;;;;;;;;;;17.40;64.89;101661.59;7395779;19;1149;-46
2023/03/30 00:38:35;;;;;;;;;;;;;;;17.42;64.60;101673.03;7397556;19;958;-46
2023/03/30 00:41:08;;;;;;;;;;;;;;;17.53;64.52;101661.63;7394344;19;1185;-47
2023/03/30 00:43:57;;;;;;;;;;;;;;;17.55;64.42;101677.56;7396121;19;1031;-47
2023/03/30 00:46:25;;;;;;;;;;;;;;;17.54;64.23;101671.34;7395401;19;1078;-47
2023/03/30 00:48:56;;;;;;;;;;;;;;;17.48;64.28;101672.63;7398152;19;1118;-46
2023/03/30 00:51:27;;;;;;;;;;;;;;;17.50;64.47;101662.66;7401275;19;1844;-46
2023/03/30 00:53:58;;;;;;;;;;;;;;;17.49;64.63;101652.94;7403572;19;962;-46
2023/03/30 00:56:32;;;;;;;;;;;;;;;17.48;64.23;101677.97;7402639;19;1074;-46
2023/03/30 00:59:02;;;;;;;;;;;;;;;17.49;64.30;101663.66;7402756;19;1033;-47
2023/03/30 01:01:37;;;;;;;;;;;;;;;17.50;64.54;101675.19;7402551;19;1015;-46
2023/03/30 01:04:08;;;;;;;;;;;;;;;17.52;64.46;101665.25;7403107;19;1124;-46
2023/03/30 01:06:38;;;;;;;;;;;;;;;17.54;64.18;101676.69;7404255;19;1035;-46
2023/03/30 01:09:07;;;;;;;;;;;;;;;17.56;64.47;101711.38;7402251;19;1004;-46
2023/03/30 01:11:38;;;;;;;;;;;;;;;17.56;64.46;101657.88;7403553;19;1952;-46
2023/03/30 01:14:09;;;;;;;;;;;;;;;17.55;64.03;101662.38;7402719;19;1022;-46
2023/03/30 01:16:43;;;;;;;;;;;;;;;17.54;64.26;101649.97;7401920;19;1043;-46
2023/03/30 01:19:28;;;;;;;;;;;;;;;17.64;63.70;101676.94;7404472;19;990;-46
2023/03/30 01:22:19;;;;;;;;;;;;;;;17.61;63.63;101663.78;7401414;19;2027;-46
2023/03/30 01:25:08;;;;;;;;;;;;;;;17.65;63.61;101668.81;7401638;19;1043;-46
2023/03/30 01:27:52;;;;;;;;;;;;;;;17.38;64.19;101670.69;7404554;19;1752;-46
2023/03/30 01:30:32;;;;;;;;;;;;;;;17.15;64.29;101673.06;7403984;19;2541;-46
2023/03/30 01:33:15;;;;;;;;;;;;;;;16.95;64.07;101673.50;7401524;19;1023;-46
2023/03/30 01:36:02;;;;;;;;;;;;;;;17.02;64.91;101681.03;7401898;19;1046;-46
2023/03/30 01:38:45;;;;;;;;;;;;;;;17.06;64.41;101681.69;7404096;19;1037;-47
2023/03/30 01:41:22;;;;;;;;;;;;;;;16.86;63.31;101680.31;7397503;19;1207;-46
2023/03/30 01:44:02;;;;;;;;;;;;;;;16.97;63.97;101672.47;7398747;19;2022;-46
2023/03/30 01:46:34;;;;;;;;;;;;;;;16.92;64.33;101677.25;7401525;19;955;-46
2023/03/30 01:49:09;;;;;;;;;;;;;;;16.81;64.52;101679.72;7402650;19;1495;-46
2023/03/30 01:51:42;;;;;;;;;;;;;;;16.87;63.75;101669.53;7400163;19;1843;-46
2023/03/30 01:54:12;;;;;;;;;;;;;;;17.73;62.22;101676.31;7405453;19;1114;-46
2023/03/30 01:56:45;;;;;;;;;;;;;;;18.18;61.09;101666.06;7401738;19;956;-46
2023/03/30 01:59:26;;;;;;;;;;;;;;;18.87;58.98;101681.72;7405024;19;1051;-46
2023/03/30 02:01:59;;;;;;;;;;;;;;;19.35;57.69;101662.94;7402465;19;1948;-46
2023/03/30 02:04:39;;;;;;;;;;;;;;;19.75;56.72;101676.03;7403655;19;1042;-46
2023/03/30 02:07:12;;;;;;;;;;;;;;;20.00;56.12;101666.09;7400751;19;1049;-47
2023/03/30 02:09:51;;;;;;;;;;;;;;;19.97;56.12;101666.31;7403690;19;1099;-46
2023/03/30 02:12:28;;;;;;;;;;;;;;;20.06;56.25;101679.03;7398521;19;1848;-46
2023/03/30 02:14:59;;;;;;;;;;;;;;;20.02;56.42;101682.94;7404647;19;1952;-46
2023/03/30 02:17:30;;;;;;;;;;;;;;;20.11;56.01;101679.50;7399935;19;1055;-46
2023/03/30 02:20:01;;;;;;;;;;;;;;;20.19;55.56;101677.09;7403493;19;1669;-46
2023/03/30 02:22:38;;;;;;;;;;;;;;;20.18;56.04;101672.69;7403600;19;1034;-46
2023/03/30 02:25:08;;;;;;;;;;;;;;;20.24;55.78;101684.78;7399692;19;1138;-47
2023/03/30 02:27:50;;;;;;;;;;;;;;;20.32;55.69;101692.25;7402733;19;1058;-47
2023/03/30 02:30:21;;;;;;;;;;;;;;;20.38;55.17;101678.31;7400664;19;1129;-46
2023/03/30 02:32:56;;;;;;;;;;;;;;;20.45;54.98;101690.25;7398958;19;1849;-46
2023/03/30 02:35:31;;;;;;;;;;;;;;;20.43;55.08;101687.72;7399988;19;1154;-46
2023/03/30 02:38:15;;;;;;;;;;;;;;;20.46;54.88;101710.78;7400090;19;1054;-46
2023/03/30 02:40:48;;;;;;;;;;;;;;;20.48;54.82;101705.31;7398852;19;1830;-46
2023/03/30 02:43:29;;;;;;;;;;;;;;;20.63;54.71;101702.28;7399847;19;1692;-46
2023/03/30 02:46:05;;;;;;;;;;;;;;;20.61;54.79;101706.03;7399636;19;1054;-46
2023/03/30 02:48:52;;;;;;;;;;;;;;;20.60;54.77;101710.56;7399065;19;1015;-46
2023/03/30 02:51:29;;;;;;;;;;;;;;;20.26;55.27;101697.09;7398307;19;1863;-46
2023/03/30 02:54:14;;;;;;;;;;;;;;;20.17;56.14;101713.09;7398768;19;1110;-46
2023/03/30 02:56:47;;;;;;;;;;;;;;;20.14;55.61;101698.09;7398683;19;1083;-46
2023/03/30 02:59:21;;;;;;;;;;;;;;;20.14;55.67;101706.13;7398493;19;1102;-46
2023/03/30 03:01:59;;;;;;;;;;;;;;;20.12;55.70;101709.94;7398975;19;1033;-46
2023/03/30 03:04:32;;;;;;;;;;;;;;;20.10;56.05;101709.19;7399057;19;1042;-46
2023/03/30 03:07:02;;;;;;;;;;;;;;;20.09;56.17;101713.69;7398321;19;968;-46
2023/03/30 03:09:31;;;;;;;;;;;;;;;20.03;55.82;101724.91;7401711;19;1672;-46
2023/03/30 03:12:01;;;;;;;;;;;;;;;19.99;56.15;101704.63;7397007;19;1843;-46
2023/03/30 03:14:38;;;;;;;;;;;;;;;20.05;56.04;101720.28;7398194;19;1129;-46
2023/03/30 03:17:06;;;;;;;;;;;;;;;20.05;56.18;101717.59;7401150;19;1697;-46
2023/03/30 03:19:35;;;;;;;;;;;;;;;20.00;56.17;101722.47;7398488;19;1046;-46
2023/03/30 03:22:04;;;;;;;;;;;;;;;20.15;55.41;101725.78;7399313;19;1051;-46
2023/03/30 03:24:38;;;;;;;;;;;;;;;20.35;54.99;101721.53;7398584;19;1018;-46
2023/03/30 03:27:08;;;;;;;;;;;;;;;20.57;54.88;101743.06;7398577;19;1038;-46
2023/03/30 03:29:40;;;;;;;;;;;;;;;20.66;54.24;101722.66;7397599;19;1036;-46
2023/03/30 03:32:11;;;;;;;;;;;;;;;20.76;53.93;101731.69;7397222;19;1861;-46
2023/03/30 03:34:43;;;;;;;;;;;;;;;20.44;54.65;101716.28;7399603;19;1505;-46
2023/03/30 03:37:11;;;;;;;;;;;;;;;20.33;55.30;101740.44;7397893;19;1010;-46
2023/03/30 03:39:40;;;;;;;;;;;;;;;20.39;55.13;101737.31;7397083;19;1106;-46
2023/03/30 03:42:09;;;;;;;;;;;;;;;20.30;55.65;101745.22;7397246;19;1022;-46
2023/03/30 03:44:41;;;;;;;;;;;;;;;20.19;55.51;101738.00;7399439;19;1115;-46
2023/03/30 03:47:12;;;;;;;;;;;;;;;20.26;55.03;101742.78;7397523;19;1026;-46
2023/03/30 03:49:44;;;;;;;;;;;;;;;20.12;55.80;101737.63;7396981;19;1122;-46
2023/03/30 03:52:12;;;;;;;;;;;;;;;20.09;55.78;101756.66;7396008;19;1851;-47
2023/03/30 03:54:49;;;;;;;;;;;;;;;20.16;55.46;101743.63;7400929;19;1146;-46
2023/03/30 03:57:22;;;;;;;;;;;;;;;20.04;55.43;101748.13;7398064;19;1599;-46
2023/03/30 03:59:51;;;;;;;;;;;;;;;20.04;55.88;101757.00;7397196;19;967;-46
2023/03/30 04:02:22;;;;;;;;;;;;;;;19.34;57.14;101757.81;7400164;19;1017;-46
2023/03/30 04:04:52;;;;;;;;;;;;;;;18.83;58.19;101772.22;7399717;19;1865;-46
2023/03/30 04:07:24;;;;;;;;;;;;;;;18.59;59.09;101773.94;7396706;19;1627;-46
2023/03/30 04:09:52;;;;;;;;;;;;;;;18.92;58.48;101768.03;7396486;19;1008;-46
2023/03/30 04:12:21;;;;;;;;;;;;;;;19.44;57.10;101771.41;7399015;19;1851;-46
2023/03/30 04:14:49;;;;;;;;;;;;;;;19.65;56.44;101771.59;7400533;19;1614;-46
2023/03/30 04:17:27;;;;;;;;;;;;;;;19.64;56.22;101767.22;7397315;19;1387;-46
2023/03/30 04:20:03;;;;;;;;;;;;;;;19.58;56.73;101775.75;7397527;19;1273;-46
2023/03/30 04:22:40;;;;;;;;;;;;;;;19.37;56.57;101779.03;7397949;19;1996;-46
2023/03/30 04:25:13;;;;;;;;;;;;;;;19.44;56.97;101785.66;7406807;19;1404;-46
2023/03/30 04:27:42;;;;;;;;;;;;;;;19.52;57.35;101786.91;7405306;19;1280;-46
2023/03/30 04:30:11;;;;;;;;;;;;;;;19.48;57.44;101781.78;7403199;19;1048;-46
2023/03/30 04:32:45;;;;;;;;;;;;;;;19.43;57.54;101794.66;7405665;19;1861;-46
2023/03/30 04:35:15;;;;;;;;;;;;;;;19.39;57.68;101803.91;7405726;19;1370;-46
2023/03/30 04:37:44;;;;;;;;;;;;;;;19.26;57.22;101803.13;7406147;19;1582;-47
2023/03/30 04:40:14;;;;;;;;;;;;;;;19.22;54.57;101785.53;7405839;19;1628;-47
2023/03/30 04:42:48;;;;;;;;;;;;;;;19.23;54.83;101808.69;7405552;19;1647;-47
2023/03/30 04:45:18;;;;;;;;;;;;;;;19.16;54.15;101807.41;7406590;19;1699;-47
2023/03/30 04:47:49;;;;;;;;;;;;;;;19.30;54.62;101809.97;7406887;19;1667;-47
2023/03/30 04:50:17;;;;;;;;;;;;;;;19.40;54.05;101816.38;7406239;19;1888;-47
2023/03/30 04:52:45;;;;;;;;;;;;;;;19.37;54.23;101824.63;7403776;19;1842;-47
2023/03/30 04:55:14;;;;;;;;;;;;;;;19.14;55.17;101833.47;7407145;19;1492;-47
2023/03/30 04:57:42;;;;;;;;;;;;;;;18.76;56.58;101835.22;7403792;19;1948;-47
2023/03/30 05:00:12;;;;;;;;;;;;;;;18.44;57.56;101851.72;7406742;19;1188;-47
2023/03/30 05:02:40;;;;;;;;;;;;;;;18.20;58.06;101856.91;7398085;19;1569;-47
2023/03/30 05:05:11;;;;;;;;;;;;;;;18.88;56.95;101833.53;7405096;19;1637;-47
2023/03/30 05:07:40;;;;;;;;;;;;;;;21.55;50.56;101830.28;7401967;19;1130;-47
2023/03/30 05:10:09;;;;;;;;;;;;;;;23.72;45.44;101825.81;7404953;19;1951;-47
2023/03/30 05:12:38;;;;;;;;;;;;;;;24.12;44.59;101816.72;7402977;19;1854;-48
2023/03/30 05:15:07;;;;;;;;;;;;;;;22.70;47.67;101839.41;7405774;19;1607;-48
2023/03/30 05:17:37;;;;;;;;;;;;;;;21.58;49.92;101836.22;7405343;19;1491;-48
2023/03/30 05:20:09;;;;;;;;;;;;;;;20.66;52.68;101820.28;7403450;19;1702;-47
2023/03/30 05:22:41;;;;;;;;;;;;;;;20.21;53.84;101833.59;7405189;19;1819;-47
2023/03/30 05:25:11;;;;;;;;;;;;;;;19.89;54.90;101816.38;7404681;19;1572;-47
2023/03/30 05:27:45;;;;;;;;;;;;;;;19.76;55.49;101824.53;7402707;19;1331;-47
2023/03/30 05:30:14;;;;;;;;;;;;;;;19.73;55.59;101812.16;7403389;19;1114;-47
2023/03/30 05:32:43;;;;;;;;;;;;;;;19.77;55.60;101835.13;7402626;19;1868;-47
2023/03/30 05:35:11;;;;;;;;;;;;;;;19.84;55.86;101827.47;7402160;19;1144;-47
2023/03/30 05:37:43;;;;;;;;;;;;;;;19.93;55.50;101824.09;7405312;19;1605;-47
2023/03/30 05:40:12;;;;;;;;;;;;;;;19.93;55.38;101823.25;7403439;19;1897;-47
2023/03/30 05:42:40;;;;;;;;;;;;;;;19.97;55.42;101843.50;7404494;19;1879;-47
2023/03/30 05:45:09;;;;;;;;;;;;;;;20.07;55.63;101823.03;7402169;19;1893;-47
2023/03/30 05:47:38;;;;;;;;;;;;;;;20.14;55.40;101826.13;7404331;19;1831;-47
2023/03/30 05:50:08;;;;;;;;;;;;;;;20.17;55.37;101842.00;7403051;19;1522;-48
2023/03/30 05:52:36;;;;;;;;;;;;;;;20.11;55.83;101846.00;7401134;19;1851;-49
2023/03/30 05:55:07;;;;;;;;;;;;;;;20.36;55.00;101836.09;7400035;19;1011;-49
2023/03/30 05:57:45;;;;;;;;;;;;;;;20.31;55.02;101833.72;7400583;19;1031;-48
2023/03/30 06:00:21;;;;;;;;;;;;;;;20.26;55.46;101836.78;7400699;19;1066;-47
2023/03/30 06:02:50;;;;;;;;;;;;;;;20.25;55.00;101828.84;7403475;19;967;-47
2023/03/30 06:05:37;;;;;;;;;;;;;;;20.29;55.26;101826.78;7401354;19;1042;-47
2023/03/30 06:08:31;;;;;;;;;;;;;;;20.37;54.75;101827.03;7401239;19;1015;-47
2023/03/30 06:11:03;;;;;;;;;;;;;;;20.37;55.38;101843.16;7400027;19;1347;-47
2023/03/30 06:13:40;;;;;;;;;;;;;;;20.38;55.39;101831.44;7399142;19;1870;-47
2023/03/30 06:16:30;;;;;;;;;;;;;;;20.42;55.49;101835.59;7400034;19;1129;-47
2023/03/30 06:19:19;;;;;;;;;;;;;;;20.45;55.42;101838.03;7400396;19;1033;-48
2023/03/30 06:24:43;;;;;;;;;;;;;;;20.52;55.63;101841.13;7402187;19;1261;-47
2023/03/30 06:27:36;;;;;;;;;;;;;;;20.31;56.04;101854.38;7400095;19;1054;-47
2023/03/30 06:30:11;;;;;;;;;;;;;;;19.82;57.83;101854.44;7402203;19;1697;-47
2023/03/30 06:32:43;;;;;;;;;;;;;;;19.54;58.55;101849.38;7399035;19;1842;-47
2023/03/30 06:35:37;;;;;;;;;;;;;;;19.40;59.26;101861.13;7400375;19;1062;-47
2023/03/30 06:41:05;;;;;;;;;;;;;;;20.06;57.17;101857.09;7398169;19;1268;-47
2023/03/30 06:43:34;;;;;;;;;;;;;;;19.77;58.51;101856.59;7399094;19;1066;-47
2023/03/30 06:46:15;;;;;;;;;;;;;;;19.52;59.00;101856.66;7401213;19;1606;-47
2023/03/30 06:48:59;;;;;;;;;;;;;;;19.34;59.78;101851.69;7399873;19;1050;-47
2023/03/30 06:51:38;;;;;;;;;;;;;;;19.90;58.36;101850.34;7399880;19;1035;-47
2023/03/30 06:57:02;;;;;;;;;;;;;;;19.59;57.96;101860.63;7403719;19;831;-47
2023/03/30 07:02:26;;;;;;;;;;;;;;;19.43;58.44;101868.91;7398728;19;860;-47
2023/03/30 07:07:53;;;;;;;;;;;;;;;20.01;56.71;101850.34;7399141;19;726;-47
2023/03/30 07:13:18;;;;;;;;;;;;;;;19.28;58.93;101854.81;7402094;19;1846;-47
2023/03/30 07:16:12;;;;;;;;;;;;;;;19.44;57.76;101844.69;7398591;19;963;-47
2023/03/30 07:18:43;;;;;;;;;;;;;;;20.04;56.04;101850.13;7398038;19;1035;-47
2023/03/30 07:24:09;;;;;;;;;;;;;;;19.37;58.35;101846.06;7398389;19;792;-47
2023/03/30 07:32:23;;;;;;;;;;;;;;;18.97;59.90;101840.91;7397922;19;1853;-47
2023/03/30 07:35:04;;;;;;;;;;;;;;;18.88;60.09;101837.06;7397546;19;1040;-47
2023/03/30 07:40:31;;;;;;;;;;;;;;;18.83;60.71;101849.06;7397952;19;1146;-47
2023/03/30 07:46:05;;;;;;;;;;;;;;;18.72;60.47;101835.53;7396153;19;1007;-47
2023/03/30 07:51:29;;;;;;;;;;;;;;;18.68;60.99;101835.75;7397655;19;720;-47
2023/03/30 07:54:17;;;;;;;;;;;;;;;18.66;61.15;101848.41;7396146;19;1847;-47
2023/03/30 07:56:51;;;;;;;;;;;;;;;18.69;60.89;101840.13;7397043;19;1121;-47
2023/03/30 08:05:01;;;;;;;;;;;;;;;18.61;61.78;101833.63;7402040;19;913;-47
2023/03/30 08:07:42;;;;;;;;;;;;;;;18.64;61.73;101833.38;7404315;19;1048;-47
2023/03/30 08:13:09;;;;;;;;;;;;;;;18.63;61.82;101829.84;7403819;19;1868;-47
2023/03/30 08:18:32;;;;;;;;;;;;;;;18.58;61.99;101829.34;7404521;19;749;-47
2023/03/30 08:23:57;;;;;;;;;;;;;;;18.52;61.92;101813.66;7404075;19;720;-47
2023/03/30 08:29:24;;;;;;;;;;;;;;;18.53;61.83;101807.34;7403801;19;745;-47
2023/03/30 08:34:48;;;;;;;;;;;;;;;18.47;62.06;101805.09;7400839;19;1838;-47
2023/03/30 08:37:28;;;;;;;;;;;;;;;18.48;62.24;101807.69;7403666;19;980;-47
2023/03/30 08:45:38;;;;;;;;;;;;;;;18.51;62.13;101798.56;7398170;19;1331;-47
2023/03/30 08:56:53;;;;;;;;;;;;;;;18.51;62.77;101801.25;7403345;19;776;-48
2023/03/30 08:59:42;;;;;;;;;;;;;;;18.56;62.82;101798.25;7403505;19;1022;-47
2023/03/30 09:02:18;;;;;;;;;;;;;;;18.53;62.92;101780.56;7402528;19;1027;-47
2023/03/30 09:05:07;;;;;;;;;;;;;;;18.57;63.67;101774.03;7403392;19;1650;-47
2023/03/30 09:08:02;;;;;;;;;;;;;;;18.55;63.61;101764.41;7403376;19;963;-47
2023/03/30 09:10:33;;;;;;;;;;;;;;;18.47;63.73;101767.63;7401018;19;971;-48
2023/03/30 09:13:28;;;;;;;;;;;;;;;18.49;63.27;101755.81;7402088;19;1861;-47
2023/03/30 09:18:56;;;;;;;;;;;;;;;18.57;62.86;101771.34;7406613;19;765;-47
2023/03/30 09:21:32;;;;;;;;;;;;;;;18.53;62.99;101759.16;7402590;19;1019;-47
2023/03/30 09:24:13;;;;;;;;;;;;;;;18.51;63.03;101757.53;7402379;19;1011;-47
2023/03/30 09:26:52;;;;;;;;;;;;;;;18.51;62.30;101752.19;7402509;19;964;-47
2023/03/30 09:32:31;;;;;;;;;;;;;;;18.33;62.22;101744.47;7402259;19;785;-51
2023/03/30 09:35:02;;;;;;;;;;;;;;;18.28;61.84;101731.41;7399155;19;1848;-51
2023/03/30 09:40:36;;;;;;;;;;;;;;;18.33;61.35;101741.78;7401992;19;823;-50
2023/03/30 09:48:39;;;;;;;;;;;;;;;18.26;58.58;101733.34;7396805;19;1253;-51
2023/03/30 09:51:25;;;;;;;;;;;;;;;18.17;58.93;101703.69;7401971;19;972;-50
2023/03/30 09:56:55;;;;;;;;;;;;;;;18.20;59.80;101706.97;7400908;19;726;-50
2023/03/30 09:59:51;;;;;;;;;;;;;;;18.26;59.23;101700.34;7402038;19;975;-51
2023/03/30 10:05:19;;;;;;;;;;;;;;;18.31;59.12;101684.81;7400986;19;816;-50
2023/03/30 10:08:10;;;;;;;;;;;;;;;18.25;59.16;101699.50;7401421;19;1019;-50
2023/03/30 10:13:38;;;;;;;;;;;;;;;18.23;59.34;101687.19;7399726;19;1834;-50
2023/03/30 10:16:09;;;;;;;;;;;;;;;18.22;59.28;101672.94;7401095;19;1035;-50
2023/03/30 10:21:33;;;;;;;;;;;;;;;18.18;59.87;101668.75;7397310;19;776;-51
2023/03/30 10:26:58;;;;;;;;;;;;;;;18.18;59.47;101666.06;7400362;19;746;-50
2023/03/30 10:29:54;;;;;;;;;;;;;;;18.13;59.20;101657.53;7400158;19;1070;-50
2023/03/30 10:35:23;;;;;;;;;;;;;;;18.05;59.32;101662.56;7400154;19;804;-50
2023/03/30 10:38:03;;;;;;;;;;;;;;;18.05;59.57;101657.22;7400354;19;1012;-50
2023/03/30 10:43:29;;;;;;;;;;;;;;;18.05;58.93;101650.03;7399423;19;816;-50
2023/03/30 10:46:10;;;;;;;;;;;;;;;18.11;58.73;101659.47;7400024;19;1023;-50
2023/03/30 10:48:46;;;;;;;;;;;;;;;18.01;59.18;101647.69;7396683;19;1121;-51
2023/03/30 10:54:18;;;;;;;;;;;;;;;18.02;58.74;101630.66;7398029;19;1849;-51
2023/03/30 10:59:50;;;;;;;;;;;;;;;18.04;59.09;101612.66;7398750;19;713;-50
2023/03/30 11:05:16;;;;;;;;;;;;;;;18.05;58.98;101619.75;7398532;19;738;-51
2023/03/30 11:07:49;;;;;;;;;;;;;;;18.06;58.67;101616.09;7399275;19;1018;-51
2023/03/30 11:13:19;;;;;;;;;;;;;;;18.04;58.93;101591.25;7401668;19;1857;-50
2023/03/30 11:16:04;;;;;;;;;;;;;;;18.12;58.77;101591.56;7398192;19;971;-51
2023/03/30 11:18:50;;;;;;;;;;;;;;;18.16;58.32;101576.97;7399047;19;1003;-50
2023/03/30 11:21:39;;;;;;;;;;;;;;;18.03;58.92;101571.66;7397954;19;1110;-51
2023/03/30 11:27:07;;;;;;;;;;;;;;;17.99;54.55;101569.31;7397937;19;808;-50
2023/03/30 11:29:40;;;;;;;;;;;;;;;17.96;57.55;101569.53;7398648;19;976;-50
2023/03/30 11:38:00;;;;;;;;;;;;;;;17.97;57.21;101555.19;7398003;19;770;-50
2023/03/30 11:43:30;;;;;;;;;;;;;;;17.82;57.75;101535.69;7397963;19;726;-51
2023/03/30 11:49:09;;;;;;;;;;;;;;;17.92;57.36;101550.16;7397408;19;1169;-50
2023/03/30 11:54:52;;;;;;;;;;;;;;;18.02;56.86;101520.91;7396566;19;1845;-51
2023/03/30 12:00:26;;;;;;;;;;;;;;;17.92;55.97;101519.88;7397223;19;725;-50
2023/03/30 12:02:58;;;;;;;;;;;;;;;17.93;56.83;101517.09;7397805;19;1030;-50
2023/03/30 12:11:26;;;;;;;;;;;;;;;17.96;56.62;101507.97;7394898;19;1085;-50
2023/03/30 12:16:56;;;;;;;;;;;;;;;18.04;56.57;101498.41;7397310;19;733;-51
2023/03/30 12:22:25;;;;;;;;;;;;;;;17.94;56.76;101488.50;7396636;19;740;-51
2023/03/30 12:25:14;;;;;;;;;;;;;;;17.93;56.25;101490.34;7397338;19;1022;-50
2023/03/30 12:30:43;;;;;;;;;;;;;;;18.03;56.00;101486.03;7396995;19;713;-51
2023/03/30 12:33:31;;;;;;;;;;;;;;;18.09;54.97;101480.22;7396289;19;1115;-50
2023/03/30 12:36:02;;;;;;;;;;;;;;;18.04;55.73;101481.53;7399108;19;1601;-51
2023/03/30 12:38:56;;;;;;;;;;;;;;;17.99;56.14;101486.38;7396190;19;999;-51
2023/03/30 12:44:27;;;;;;;;;;;;;;;18.17;56.19;101460.06;7397037;19;812;-51
2023/03/30 12:47:13;;;;;;;;;;;;;;;18.25;55.50;101469.25;7403172;19;1027;-51
2023/03/30 12:52:44;;;;;;;;;;;;;;;18.29;55.09;101453.81;7396334;19;1148;-51
2023/03/30 13:06:56;;;;;;;;;;;;;;;18.13;55.45;101415.78;7403054;19;800;-48
2023/03/30 13:09:36;;;;;;;;;;;;;;;18.15;53.72;101425.38;7402417;19;1141;-48
2023/03/30 13:15:01;;;;;;;;;;;;;;;18.04;55.61;101419.97;7400634;19;1855;-48
2023/03/30 13:17:46;;;;;;;;;;;;;;;18.07;54.63;101406.38;7402558;19;967;-48
2023/03/30 13:20:25;;;;;;;;;;;;;;;18.06;55.00;101410.00;7402003;19;1036;-48
2023/03/30 13:25:54;;;;;;;;;;;;;;;18.11;54.87;101404.31;7402024;19;812;-48
2023/03/30 13:31:28;;;;;;;;;;;;;;;18.16;54.57;101399.47;7402144;19;713;-48
2023/03/30 13:34:18;;;;;;;;;;;;;;;18.20;53.80;101404.47;7400930;19;1853;-48
2023/03/30 13:37:02;;;;;;;;;;;;;;;18.16;53.28;101383.41;7402017;19;1261;-48
2023/03/30 13:39:37;;;;;;;;;;;;;;;18.13;53.47;101391.69;7401508;19;1040;-48
2023/03/30 13:45:14;;;;;;;;;;;;;;;18.09;55.46;101383.88;7406370;19;746;-48
2023/03/30 13:47:57;;;;;;;;;;;;;;;17.85;55.13;101367.81;7401436;19;1035;-48
2023/03/30 13:50:48;;;;;;;;;;;;;;;17.82;57.78;101365.31;7401768;19;967;-48
2023/03/30 13:53:18;;;;;;;;;;;;;;;17.94;55.43;101360.06;7399889;19;1166;-48
2023/03/30 13:58:43;;;;;;;;;;;;;;;18.10;55.04;101363.28;7401363;19;784;-48
2023/03/30 14:01:28;;;;;;;;;;;;;;;18.03;56.08;101354.03;7401046;19;1017;-48
2023/03/30 14:04:07;;;;;;;;;;;;;;;18.02;56.69;101357.66;7400569;19;1098;-48
2023/03/30 14:06:58;;;;;;;;;;;;;;;18.04;56.04;101353.06;7400512;19;999;-48
2023/03/30 14:12:22;;;;;;;;;;;;;;;18.15;55.56;101355.78;7401001;19;752;-48
2023/03/30 14:14:55;;;;;;;;;;;;;;;18.13;56.06;101356.88;7399435;19;1853;-48
2023/03/30 14:17:31;;;;;;;;;;;;;;;18.09;55.84;101351.75;7400087;19;1887;-48
2023/03/30 14:20:03;;;;;;;;;;;;;;;18.18;56.40;101342.16;7400907;19;1029;-48
2023/03/30 14:25:33;;;;;;;;;;;;;;;18.18;56.86;101349.34;7400602;19;812;-48
2023/03/30 14:28:04;;;;;;;;;;;;;;;18.19;57.37;101345.72;7400735;19;1074;-48
2023/03/30 14:30:53;;;;;;;;;;;;;;;18.12;57.85;101347.13;7400565;19;958;-48
2023/03/30 14:33:28;;;;;;;;;;;;;;;18.12;57.54;101345.31;7399736;19;1098;-49
2023/03/30 14:35:58;;;;;;;;;;;;;;;18.08;57.50;101338.47;7397787;19;1866;-48
2023/03/30 14:38:52;;;;;;;;;;;;;;;18.07;58.21;101326.06;7399910;19;1045;-48
2023/03/30 14:41:46;;;;;;;;;;;;;;;17.99;59.38;101332.00;7399390;19;1035;-48
2023/03/30 14:44:25;;;;;;;;;;;;;;;18.03;58.83;101329.97;7398652;19;1048;-48
2023/03/30 14:47:10;;;;;;;;;;;;;;;18.03;58.88;101337.97;7400008;19;1136;-48
2023/03/30 14:55:22;;;;;;;;;;;;;;;17.97;59.02;101325.91;7394878;19;1857;-48
2023/03/30 15:00:48;;;;;;;;;;;;;;;17.98;59.33;101322.25;7399383;19;801;-48
2023/03/30 15:06:16;;;;;;;;;;;;;;;17.91;59.89;101315.66;7399465;19;721;-48
2023/03/30 15:11:40;;;;;;;;;;;;;;;17.94;60.97;101306.56;7399393;19;733;-48
2023/03/30 15:17:10;;;;;;;;;;;;;;;17.99;60.00;101317.78;7398254;19;792;-48
2023/03/30 15:22:35;;;;;;;;;;;;;;;17.77;60.73;101305.13;7398159;19;523;-48
2023/03/30 15:28:00;;;;;;;;;;;;;;;17.62;60.65;101294.56;7397921;19;733;-48
2023/03/30 15:30:47;;;;;;;;;;;;;;;17.56;61.22;101294.19;7398116;19;1023;-48
2023/03/30 15:36:18;;;;;;;;;;;;;;;17.56;60.88;101294.19;7396074;19;1845;-48
2023/03/30 15:41:46;;;;;;;;;;;;;;;17.42;61.80;101276.47;7398013;19;785;-48
2023/03/30 15:47:13;;;;;;;;;;;;;;;17.52;61.48;101274.84;7397933;19;795;-48
2023/03/30 15:49:55;;;;;;;;;;;;;;;17.47;61.65;101285.88;7398211;19;1026;-48
2023/03/30 15:55:23;;;;;;;;;;;;;;;17.41;62.43;101272.97;7396397;19;1848;-48
2023/03/30 15:58:02;;;;;;;;;;;;;;;17.40;62.56;101292.63;7397033;19;2031;-48
2023/03/30 16:03:38;;;;;;;;;;;;;;;17.35;62.57;101262.72;7397384;19;796;-49
2023/03/30 16:06:32;;;;;;;;;;;;;;;17.33;62.64;101255.75;7396786;19;1055;-48
2023/03/30 16:11:59;;;;;;;;;;;;;;;17.30;62.63;101256.84;7396705;19;738;-48
2023/03/30 16:17:24;;;;;;;;;;;;;;;17.26;63.39;101260.72;7397016;19;753;-48
2023/03/30 16:20:12;;;;;;;;;;;;;;;17.26;62.77;101255.38;7402214;19;1063;-49
2023/03/30 16:22:59;;;;;;;;;;;;;;;17.28;62.37;101250.75;7404070;19;1105;-48
2023/03/30 16:31:22;;;;;;;;;;;;;;;17.21;62.93;101242.34;7404388;19;716;-48
2023/03/30 16:36:46;;;;;;;;;;;;;;;17.15;62.08;101241.91;7404031;19;764;-48
2023/03/30 16:42:10;;;;;;;;;;;;;;;18.72;57.59;101243.41;7403805;19;728;-48
2023/03/30 16:47:37;;;;;;;;;;;;;;;19.37;56.49;101226.53;7407942;19;749;-48
2023/03/30 16:53:01;;;;;;;;;;;;;;;19.67;56.11;101230.31;7403659;19;749;-47
2023/03/30 16:55:30;;;;;;;;;;;;;;;19.76;55.64;101232.28;7401509;19;1845;-47
2023/03/30 16:57:58;;;;;;;;;;;;;;;19.63;56.12;101224.34;7403278;19;1054;-47
2023/03/30 17:00:51;;;;;;;;;;;;;;;19.59;56.11;101224.75;7403380;19;1062;-47
2023/03/30 17:03:42;;;;;;;;;;;;;;;19.67;56.72;101228.47;7402611;19;1028;-47
2023/03/30 17:06:26;;;;;;;;;;;;;;;19.65;56.75;101233.13;7402529;19;1154;-47
2023/03/30 17:11:45;;;;;;;;;;;;;;;19.75;56.85;101235.09;7400021;19;1003;-47
2023/03/30 17:14:31;;;;;;;;;;;;;;;19.81;57.07;101218.47;7403257;19;1042;-47
2023/03/30 17:17:00;;;;;;;;;;;;;;;19.79;57.23;101223.94;7403045;19;1022;-46
2023/03/30 17:22:27;;;;;;;;;;;;;;;19.67;58.30;101233.00;7401991;19;793;-47
2023/03/30 17:24:58;;;;;;;;;;;;;;;19.78;57.54;101218.75;7402084;19;1039;-47
2023/03/30 17:30:23;;;;;;;;;;;;;;;19.78;58.10;101227.63;7401406;19;860;-46
2023/03/30 17:32:59;;;;;;;;;;;;;;;19.88;57.79;101225.03;7401717;19;1126;-47
2023/03/30 17:38:25;;;;;;;;;;;;;;;19.72;57.87;101213.91;7401692;19;752;-48
2023/03/30 17:43:50;;;;;;;;;;;;;;;19.80;57.90;101220.31;7401854;19;729;-48
2023/03/30 17:52:09;;;;;;;;;;;;;;;19.00;60.38;101216.16;7401216;19;725;-47
2023/03/30 17:57:36;;;;;;;;;;;;;;;18.77;60.78;101212.63;7396099;19;1284;-48
2023/03/30 18:03:00;;;;;;;;;;;;;;;18.56;61.07;101204.47;7401068;19;816;-47
2023/03/30 18:08:24;;;;;;;;;;;;;;;18.48;61.58;101218.47;7401465;19;729;-48
2023/03/30 18:11:08;;;;;;;;;;;;;;;18.42;62.56;101199.34;7400502;19;1016;-48